createdAt,value
2022-10-31T00:00:44.193Z,69.5
2022-10-31T00:05:50.052Z,69.5
2022-10-31T00:10:56.121Z,69.5
2022-10-31T00:16:03.273Z,69.5
2022-10-31T00:21:09.355Z,69.5
2022-10-31T00:26:15.449Z,69.5
2022-10-31T00:31:21.473Z,69.5
2022-10-31T00:36:27.534Z,69.5
2022-10-31T00:46:43.435Z,69.5
2022-10-31T00:51:51.350Z,69.5
2022-10-31T01:02:07.407Z,69.5
2022-10-31T01:07:13.297Z,69.5
2022-10-31T01:12:19.346Z,69.5
2022-10-31T01:22:34.499Z,69.5
2022-10-31T01:27:40.512Z,69.5
2022-10-31T01:32:46.589Z,69.5
2022-10-31T01:37:53.796Z,69.5
2022-10-31T01:43:00.116Z,69.5
2022-10-31T01:48:05.891Z,69.5
2022-10-31T02:03:27.868Z,69.5
2022-10-31T02:08:33.894Z,69.5
2022-10-31T02:13:39.958Z,69.5
2022-10-31T02:18:46.056Z,69.5
2022-10-31T02:23:53.198Z,69.5
2022-10-31T02:29:00.387Z,69.5
2022-10-31T02:34:06.470Z,69.5
2022-10-31T02:39:12.504Z,69.5
2022-10-31T02:44:18.558Z,69.5
2022-10-31T02:49:24.640Z,69.5
2022-10-31T02:54:31.812Z,69.5
2022-10-31T02:59:37.862Z,69.5
2022-10-31T03:04:43.948Z,69.5
2022-10-31T03:09:50.009Z,69.5
2022-10-31T03:14:57.938Z,69.5
2022-10-31T03:20:05.896Z,69.5
2022-10-31T03:25:13.829Z,69.5
2022-10-31T03:35:29.718Z,69.5
2022-10-31T03:45:43.690Z,69.5
2022-10-31T03:50:49.788Z,69.5
2022-10-31T04:01:05.732Z,69.5
2022-10-31T04:06:11.713Z,69.5
2022-10-31T04:16:25.695Z,69.5
2022-10-31T04:26:39.731Z,69.5
2022-10-31T04:31:45.747Z,69.5
2022-10-31T04:36:51.807Z,69.5
2022-10-31T04:47:05.846Z,69.5
2022-10-31T04:52:11.867Z,69.5
2022-10-31T04:57:17.915Z,69.5
2022-10-31T05:02:24.134Z,69.5
2022-10-31T05:07:30.053Z,69.5
2022-10-31T05:12:36.121Z,69.5
2022-10-31T05:17:42.214Z,69.5
2022-10-31T05:22:48.232Z,69.5
2022-10-31T05:27:54.307Z,69.5
2022-10-31T05:33:00.679Z,69.5
2022-10-31T05:38:06.423Z,69.5
2022-10-31T05:43:12.476Z,69.5
2022-10-31T05:48:18.585Z,69.5
2022-10-31T05:53:24.616Z,69.5
2022-10-31T06:03:38.695Z,69.5
2022-10-31T06:08:44.690Z,69.5
2022-10-31T06:13:50.732Z,69.5
2022-10-31T06:18:58.731Z,69.5
2022-10-31T06:24:06.629Z,69.5
2022-10-31T06:29:14.567Z,69.5
2022-10-31T06:34:22.556Z,69.5
2022-10-31T06:44:38.396Z,70
2022-10-31T06:49:46.365Z,70
2022-10-31T06:54:54.286Z,70
2022-10-31T07:00:02.348Z,70
2022-10-31T07:05:10.180Z,70
2022-10-31T07:10:18.130Z,70
2022-10-31T07:15:26.042Z,70
2022-10-31T07:20:34.020Z,70
2022-10-31T07:30:49.911Z,70
2022-10-31T07:41:03.892Z,70
2022-10-31T07:46:09.918Z,70
2022-10-31T07:51:16.000Z,70
2022-10-31T07:56:22.091Z,70.5
2022-10-31T08:06:36.059Z,70.5
2022-10-31T08:11:42.136Z,70.5
2022-10-31T08:16:48.173Z,70.5
2022-10-31T08:21:54.240Z,70.5
2022-10-31T08:27:00.318Z,70.5
2022-10-31T08:32:06.371Z,70.5
2022-10-31T08:37:12.432Z,70.5
2022-10-31T08:42:18.535Z,70.5
2022-10-31T08:52:58.843Z,70.5
2022-10-31T08:57:38.588Z,70.5
2022-10-31T09:07:52.637Z,70.5
2022-10-31T09:12:59.758Z,70.5
2022-10-31T09:18:05.794Z,70.5
2022-10-31T09:23:11.832Z,70.5
2022-10-31T09:28:17.998Z,70.5
2022-10-31T09:33:23.989Z,70.5
2022-10-31T09:38:30.057Z,71
2022-10-31T09:48:44.064Z,71
2022-10-31T09:53:50.113Z,71
2022-10-31T09:58:56.163Z,71
2022-10-31T10:04:02.249Z,71.5
2022-10-31T10:14:16.217Z,71.5
2022-10-31T10:19:23.453Z,71.5
2022-10-31T10:24:31.337Z,71.5
2022-10-31T10:29:37.414Z,72
2022-10-31T10:34:43.530Z,71.5
2022-10-31T10:39:49.560Z,72
2022-10-31T10:44:55.616Z,72
2022-10-31T10:50:01.714Z,72
2022-10-31T10:55:08.853Z,72
2022-10-31T11:00:16.797Z,72
2022-10-31T11:05:24.768Z,72
2022-10-31T11:10:32.685Z,72
2022-10-31T11:15:40.594Z,72
2022-10-31T11:20:48.579Z,72
2022-10-31T11:25:56.501Z,72
2022-10-31T11:31:04.461Z,72
2022-10-31T11:36:12.383Z,72
2022-10-31T11:41:20.296Z,72
2022-10-31T11:46:28.253Z,72.5
2022-10-31T11:56:44.158Z,72.5
2022-10-31T12:01:52.255Z,72.5
2022-10-31T12:07:00.054Z,72.5
2022-10-31T12:12:07.969Z,72.5
2022-10-31T12:17:15.883Z,72.5
2022-10-31T12:22:23.832Z,72.5
2022-10-31T12:27:31.790Z,72.5
2022-10-31T12:32:39.714Z,72.5
2022-10-31T12:37:47.663Z,73
2022-10-31T12:42:55.617Z,73
2022-10-31T12:48:03.563Z,73
2022-10-31T12:53:11.526Z,73
2022-10-31T12:58:19.487Z,73
2022-10-31T13:03:27.337Z,73
2022-10-31T13:08:35.295Z,73
2022-10-31T13:13:43.252Z,73
2022-10-31T13:18:51.159Z,73
2022-10-31T13:23:59.125Z,73
2022-10-31T13:29:07.091Z,73
2022-10-31T13:34:15.006Z,73
2022-10-31T13:39:22.924Z,73
2022-10-31T13:44:35.785Z,73
2022-10-31T13:49:38.843Z,72.5
2022-10-31T13:54:46.779Z,72.5
2022-10-31T13:59:54.742Z,72.5
2022-10-31T14:05:02.672Z,72.5
2022-10-31T14:10:10.633Z,72.5
2022-10-31T14:15:18.584Z,72.5
2022-10-31T14:20:26.470Z,72.5
2022-10-31T14:30:42.398Z,72.5
2022-10-31T14:35:50.305Z,72.5
2022-10-31T14:40:58.272Z,72.5
2022-10-31T14:46:06.218Z,72.5
2022-10-31T14:51:14.138Z,72.5
2022-10-31T14:56:22.218Z,72
2022-10-31T15:01:30.399Z,72
2022-10-31T15:06:38.009Z,72
2022-10-31T15:11:45.928Z,72
2022-10-31T15:16:53.894Z,72
2022-10-31T15:22:01.804Z,72
2022-10-31T15:27:09.746Z,72
2022-10-31T15:42:33.607Z,71.5
2022-10-31T15:47:39.628Z,71.5
2022-10-31T16:03:01.781Z,71.5
2022-10-31T16:08:07.626Z,71.5
2022-10-31T16:13:13.696Z,71.5
2022-10-31T16:18:19.758Z,71.5
2022-10-31T16:23:25.801Z,71.5
2022-10-31T16:28:34.257Z,71.5
2022-10-31T16:33:37.977Z,71.5
2022-10-31T16:38:43.995Z,71.5
2022-10-31T16:43:52.440Z,71
2022-10-31T16:54:04.091Z,71
2022-10-31T16:59:15.631Z,71
2022-10-31T17:04:16.148Z,71
2022-10-31T17:09:22.238Z,71
2022-10-31T17:14:30.148Z,71
2022-10-31T17:19:36.204Z,71
2022-10-31T17:24:42.301Z,71
2022-10-31T17:29:48.320Z,71
2022-10-31T17:34:54.398Z,71
2022-10-31T17:40:00.484Z,71
2022-10-31T17:45:06.575Z,71
2022-10-31T17:50:14.438Z,71
2022-10-31T17:55:22.420Z,71
2022-10-31T18:00:30.332Z,71
2022-10-31T18:05:38.295Z,71
2022-10-31T18:10:46.297Z,71
2022-10-31T18:26:10.110Z,71
2022-10-31T18:36:24.060Z,71
2022-10-31T18:41:30.148Z,71
2022-10-31T18:46:38.070Z,71
2022-10-31T18:51:44.140Z,71
2022-10-31T19:02:00.267Z,71
2022-10-31T19:07:06.093Z,71
2022-10-31T19:17:20.101Z,71
2022-10-31T19:22:26.144Z,71
2022-10-31T19:27:32.210Z,71
2022-10-31T19:32:38.336Z,71
2022-10-31T19:37:44.320Z,71
2022-10-31T19:48:00.000Z,71
2022-10-31T19:58:13.872Z,71
2022-10-31T20:03:22.365Z,71
2022-10-31T20:08:25.545Z,71
2022-10-31T20:13:31.620Z,71
2022-10-31T20:18:37.702Z,71
2022-10-31T20:28:51.711Z,71
2022-10-31T20:33:57.785Z,71
2022-10-31T20:39:03.798Z,71
2022-10-31T20:44:09.862Z,71
2022-10-31T20:49:16.119Z,71
2022-10-31T20:54:22.004Z,71
2022-10-31T20:59:28.060Z,71
2022-10-31T21:04:34.132Z,71
2022-10-31T21:09:40.169Z,71
2022-10-31T21:14:46.236Z,71
2022-10-31T21:19:52.298Z,71
2022-10-31T21:24:58.354Z,71
2022-10-31T21:30:04.408Z,71
2022-10-31T21:35:10.483Z,71
2022-10-31T21:45:24.471Z,71
2022-10-31T21:50:30.535Z,71
2022-10-31T21:55:38.461Z,71
2022-10-31T22:00:46.478Z,71
2022-10-31T22:05:59.570Z,71
2022-10-31T22:11:02.296Z,71
2022-10-31T22:16:10.233Z,71
2022-10-31T22:21:18.234Z,71
2022-10-31T22:26:26.167Z,71
2022-10-31T22:31:34.072Z,71
2022-10-31T22:36:42.062Z,71
2022-10-31T22:41:50.011Z,71
2022-10-31T22:46:58.000Z,71
2022-10-31T22:52:05.902Z,71
2022-10-31T22:57:13.827Z,71
2022-10-31T23:02:21.796Z,71
2022-10-31T23:12:37.664Z,71
2022-10-31T23:17:45.600Z,71
2022-10-31T23:22:53.557Z,71
2022-10-31T23:28:01.500Z,71
2022-10-31T23:33:09.441Z,71
2022-10-31T23:38:17.415Z,71
2022-10-31T23:48:33.301Z,71
2022-10-31T23:53:41.195Z,71
2022-10-31T23:58:49.136Z,71
